[Firmenlogo-Bild] 

Home Nach oben Feedback Inhalt Impressum

  Willkommen auf der Internetseite von

"Holzlandwetter"


Private Wetterstation Hermsdorf / Thüringen 

                                       

[Under Construction]

 

 

 

 

 

 

 

 

 

 

 

 

 

Wetterereignisse im August 2010:

Schweres Gewitter mit Hagel am 22.08.2010

Max. Niederschlagsintensitäten :

bullet2,3   mm / min
bullet14,8 mm / 10 min
bullet31,5 mm / 2 h

 

Wetterereignisse im Juli 2010:

Starkregen am 23.und 24.07.2010

Schweres Gewitter am 04.07.2010

Max. Niederschlagsintensitäten :

bullet2,3   mm / min
bullet13,0 mm / 10 min
bullet38,0 mm / h

 

Wetterereignisse im August 2009:

Alle Zeiten UTC; Auswertung 10-min-Mittelwerte

Strahlungswetter: am 19.08.2009

Wetterereignisse im Januar 2009:

Alle Zeiten UTC; Auswertung 10-min-Mittelwerte

Kalte Wintertage: am 06. und 07.01.2009

 

Wetterereignisse im November 2008:

Alle Zeiten UTC; Auswertung 10-min-Mittelwerte

Polarluftvorstoß: ab 21.11.2008

Messung Lufttemperatur in 2 m Höhe über dem Erdboden und Windchill-Temperatur

 

Wetterereignisse im Oktober 2008:

Alle Zeiten UTC; Auswertung 10-min-Mittelwerte

Erster Schnee im Herbst 2008 am 30.10.2008

Schneehöhe 06:00 Uhr: 2 cm

Wetterereignisse im September 2008:

Erster Bodenfrost im Herbst 2008 am 18.09.2007

Datum Zeit Luft-Temp.Mittel Luft-Temp. Max Luft-Temp. min Gras-Temp.Mittel Gras-Temp.Max Gras-Temp.Min
18.09.2008 01:00 2,1 2,3 1,9 0,5 0,9 0,1
18.09.2008 02:00 1,8 2,0 1,5 0,3 0,6 0,0
18.09.2008 03:00 1,4 1,5 1,3 -0,1 0,4 -0,4
18.09.2008 04:00 1,5 1,6 1,3 0,0 0,4 -0,3
18.09.2008 05:00 1,5 1,6 1,4 -0,1 0,2 -0,4
18.09.2008 06:00 2,5 4,7 1,6 1,1 2,6 -0,1
18.09.2008 07:00 6,6 7,8 4,7 4,9 7,7 2,6
18.09.2008 08:00 9,5 11,4 7,5 10,1 16,4 6,3
18.09.2008 09:00 12,6 13,7 11,4 16,1 18,3 14,6
18.09.2008 10:00 13,7 14,1 13,2 18,2 19,9 15,9
18.09.2008 11:00 14,2 14,5 13,8 18,3 20,9 13,6
18.09.2008 12:00 14,6 15,1 13,9 14,8 16,4 12,9
18.09.2008 13:00 13,9 14,5 13,0 15,1 16,2 13,3
18.09.2008 14:00 13,3 13,9 13,0 14,0 14,5 13,1
18.09.2008 15:00 13,2 13,6 12,8 14,0 14,9 12,7
18.09.2008 16:00 12,6 12,8 12,4 12,2 12,8 11,8
18.09.2008 17:00 11,7 12,6 10,7 9,4 12,1 7,3
18.09.2008 18:00 9,8 10,7 8,6 5,7 7,3 4,6
18.09.2008 19:00 7,9 8,7 7,3 4,3 4,7 3,8
18.09.2008 20:00 6,8 7,3 6,2 3,6 4,0 3,1
18.09.2008 21:00 5,7 6,2 5,2 3,1 3,4 2,6
18.09.2008 22:00 4,9 5,2 4,5 2,6 2,9 2,3
18.09.2008 23:00 4,4 4,6 4,3 2,3 2,6 2,0
18.09.2008 24:00 3,9 4,3 3,7 1,9 2,3 1,6

 

Wetterereignisse im Juli 2008:

Strahlungswetter  am 28. 07.2008

Kaltfront Tief "Xandra"  am 16. 07.2008

Alle Zeiten UTC; Auswertung 10-min-Mittelwerte

(UTC: Universal Time Coordinated, im Sommer MESZ = UTC + 2h , im Winter MEZ = UTC + 1h)

Wetterereignisse im Juni 2008:

Ergiebiger Dauerregen vom 03.06.08 bis 04.06.08: 46,4 l/m² in 12 h

Alle Zeiten UTC; Auswertung 10-min-Mittelwerte

(UTC: Universal Time Coordinated, im Sommer MESZ = UTC + 2h , im Winter MEZ = UTC + 1h)

Wetterereignisse im Mai 2008:

Strahlungswetter  am 09. 05.2008

Alle Zeiten UTC; Auswertung 10-min-Mittelwerte

(UTC: Universal Time Coordinated, im Sommer MESZ = UTC + 2h , im Winter MEZ = UTC + 1h)

Wetterereignisse im März 2008:

Eistag  am 23. 03.2008

Alle Zeiten UTC; Auswertung 10-min-Mittelwerte

(UTC: Universal Time Coordinated, im Sommer MESZ = UTC + 2h , im Winter MEZ = UTC + 1h)

Orkantief "EMMA"  am 01. 03.2008

Alle Zeiten UTC; Auswertung 10-min-Mittelwerte

(UTC: Universal Time Coordinated, im Sommer MESZ = UTC + 2h , im Winter MEZ = UTC + 1h)

Windspitze: 29,2 m/s entspricht 105,1 km/h; Richtung der Windspitze: 275,7 Grad (West)

Wetterereignisse im Januar 2008:

Kaltfront Tief "NICOLE"  am 22. 01.2008

Alle Zeiten UTC; Auswertung 10-min-Mittelwerte

(UTC: Universal Time Coordinated, im Sommer MESZ = UTC + 2h , im Winter MEZ = UTC + 1h)

Wetterereignisse im Dezember 2007:

 Sturmtief Fridtjof  am 02. und 03.12.2007

Alle Zeiten UTC; Auswertung 10-min-Mittelwerte

(UTC: Universal Time Coordinated, im Sommer MESZ = UTC + 2h , im Winter MEZ = UTC + 1h)

 Luftdruck : Ablesung  Stationsbarometer reduziert auf Meereshöhe (NN) 

 Windgeschwindigkeit: Extremwerte und vektorieller Mittelwert

Windgeschwindigkeit und Windrichtung

Wetterereignisse im November 2007:

Alle Zeiten UTC; Auswertung 10-min-Mittelwerte

Erster Schnee im Herbst 2007 am 14.11.2007

Erste Herbststürme 2007 vom 06.11.2007 bis 11.11.2007

QFE: Luftdruck Stationsbarometer 348 m ü. NN

QNH: Reduzierter Luftdruck auf Meereshöhe (NN)

Wetterereignisse im Oktober 2007:

Alle Zeiten UTC; Auswertung 10-min-Mittelwerte

Erster Frosttag im Herbst 2007 am 22.10.2007

Datum Zeit Luft-Temp. Luft-Temp.  Luft-Temp.  Gras-Temp. Gras-Temp. Gras-Temp.
Mittel Max Min Mittel Max Min
22.10.2007 01:00 1,2 1,3 0,9 1,4 1,6 1,1
22.10.2007 02:00 0,8 1,0 0,7 0,9 1,2 0,6
22.10.2007 03:00 0,4 0,7 0,3 0,6 0,8 0,3
22.10.2007 04:00 0,2 0,4 -0,1 0,4 0,6 0,1
22.10.2007 05:00 -0,1 0,0 -0,3 0,4 0,6 0,0
22.10.2007 06:00 -0,1 0,0 -0,2 0,4 0,7 0,1
22.10.2007 07:00 0,1 0,2 0,0 0,7 1,0 0,4
22.10.2007 08:00 0,0 0,1 -0,2 0,9 1,3 0,6
22.10.2007 09:00 -0,1 0,4 -0,3 1,1 2,3 0,4
22.10.2007 10:00 1,0 2,1 0,4 2,9 5,3 1,6
22.10.2007 11:00 2,9 3,9 2,0 4,6 6,0 3,4
22.10.2007 12:00 2,7 3,3 2,3 3,6 4,6 2,8
22.10.2007 13:00 3,1 3,6 2,7 4,3 5,1 3,4
22.10.2007 14:00 3,2 3,6 3,0 3,6 4,4 3,0
22.10.2007 15:00 3,3 3,4 3,0 3,5 3,9 3,1
22.10.2007 16:00 3,0 3,2 2,9 3,1 3,3 2,8
22.10.2007 17:00 2,8 2,9 2,7 2,7 2,8 2,5
22.10.2007 18:00 2,6 2,7 2,6 2,6 2,7 2,5
22.10.2007 19:00 2,5 2,7 2,4 2,6 2,7 2,4
22.10.2007 20:00 2,3 2,4 2,2 2,3 2,5 2,2
22.10.2007 21:00 2,2 2,3 2,2 2,3 2,4 2,2
22.10.2007 22:00 2,1 2,2 2,0 2,2 2,3 2,1
22.10.2007 23:00 2,0 2,1 1,9 2,2 2,4 2,0
22.10.2007 24:00 2,1 2,2 2,1 2,3 2,4 2,2

Bodenfrost am 21.10.2007

Gras-Temperatur : Lufttemperatur 5 c m über Erdboden in Grad C

Datum Zeit Luft-Temp. Luft-Temp.  Luft-Temp.  Gras-Temp. Gras-Temp. Gras-Temp.
Mittel Max Min Mittel Max Min
21.10.2007 01:00 3,9 4,0 3,6 3,6 3,7 3,4
21.10.2007 02:00 3,4 3,7 3,1 3,3 3,5 3,1
21.10.2007 03:00 3,2 3,4 3,0 3,1 3,4 2,9
21.10.2007 04:00 3,4 3,5 3,2 2,9 3,1 2,8
21.10.2007 05:00 3,2 3,3 3,0 3,0 3,1 2,8
21.10.2007 06:00 2,9 3,1 2,9 2,9 3,1 2,8
21.10.2007 07:00 3,0 3,1 2,9 3,1 3,5 2,9
21.10.2007 08:00 2,8 3,0 2,5 3,0 3,3 2,7
21.10.2007 09:00 2,8 3,3 2,7 3,3 4,3 2,9
21.10.2007 10:00 4,0 4,2 3,3 4,5 4,8 4,2
21.10.2007 11:00 4,4 5,0 4,0 5,2 6,3 4,4
21.10.2007 12:00 5,3 5,4 5,0 6,1 6,8 5,5
21.10.2007 13:00 5,5 6,0 5,0 6,4 8,0 5,0
21.10.2007 14:00 4,6 5,0 4,2 4,9 5,6 4,1
21.10.2007 15:00 4,3 4,7 3,9 4,5 4,9 4,0
21.10.2007 16:00 3,1 4,4 2,4 3,1 4,9 2,1
21.10.2007 17:00 2,5 2,5 2,4 2,4 2,7 1,9
21.10.2007 18:00 2,6 2,7 2,5 2,6 2,9 2,1
21.10.2007 19:00 2,4 2,7 2,2 1,8 2,5 1,2
21.10.2007 20:00 2,2 2,3 1,9 1,3 1,9 0,4
21.10.2007 21:00 1,6 2,0 1,3 -0,1 0,4 -0,5
21.10.2007 22:00 1,0 1,4 0,5 -0,9 -0,3 -1,4
21.10.2007 23:00 0,4 0,7 0,1 -1,0 0,5 -1,7
21.10.2007 24:00 1,1 1,2 0,7 1,1 1,5 0,4

Erster Bodenfrost im Herbst 2007 am 14.10.2007

Datum Zeit Luft-Temp. Luft-Temp.  Luft-Temp.  Gras-Temp. Gras-Temp. Gras-Temp.
Mittel Max Min Mittel Max Min
14.10.2007 01:00 2,6 2,8 2,4 0,1 0,4 -0,2
14.10.2007 02:00 2,0 2,5 1,7 -0,2 0,1 -0,5
14.10.2007 03:00 1,7 2,0 1,5 -0,3 -0,1 -0,6
14.10.2007 04:00 2,2 2,4 2,0 -0,2 0,1 -0,5
14.10.2007 05:00 2,2 2,3 2,1 -0,3 -0,1 -0,6
14.10.2007 06:00 2,2 3,3 2,0 -0,2 0,2 -0,6
14.10.2007 07:00 5,9 7,9 3,3 1,5 3,2 0,1
14.10.2007 08:00 8,4 9,8 7,3 7,8 12,5 3,2
14.10.2007 09:00 10,6 12,3 9,7 13,0 15,3 11,4
14.10.2007 10:00 11,9 12,6 11,5 16,2 17,9 14,5
14.10.2007 11:00 13,1 14,0 12,1 14,7 17,2 12,8
14.10.2007 12:00 13,8 14,5 13,1 12,3 12,9 11,8
14.10.2007 13:00 13,1 13,2 13,0 11,9 12,6 11,0
14.10.2007 14:00 13,2 13,4 13,0 11,0 11,8 9,9
14.10.2007 15:00 12,8 13,1 12,5 9,8 10,6 8,4
14.10.2007 16:00 11,9 12,5 11,1 7,8 9,1 6,6
14.10.2007 17:00 9,9 11,2 8,7 5,1 6,7 3,9
14.10.2007 18:00 7,9 8,7 7,3 3,4 3,9 3,1
14.10.2007 19:00 6,6 7,3 6,0 3,1 3,5 2,8
14.10.2007 20:00 5,9 6,1 5,6 3,2 3,9 2,7
14.10.2007 21:00 6,7 8,0 6,1 3,8 5,7 2,5
14.10.2007 22:00 7,7 8,1 7,0 4,6 5,8 2,7
14.10.2007 23:00 7,2 7,5 6,9 4,4 5,6 2,7
14.10.2007 24:00 6,1 6,9 5,7 2,2 3,2 1,7

 

Wetterereignisse im September 2007:

Alle Zeiten UTC; Auswertung 10-min-Mittelwerte

Ergiebiger Dauerregen vom 26.09.07 bis 29.09.07: 101,4 l/m² in 60 h

Ergiebiger Dauerregen am 29.09.07

Ergiebiger Dauerregen am 28.09.07

Ergiebiger Dauerregen am 27.09.07

Ergiebiger Dauerregen vom 26.09.07 bis 29.09.07: 101,4 l/m² in 60 h

Kaltfront am 18.09.07

Graupelschauer am 04.09.07

Gewitter am 03.09.07

Legende:

  1. Lufttemperatur 2,0 m über Erdboden in Grad C
  2. Taupunkt berechnet in Grad C
  3. Erdbodentemperatur 5 cm Tiefe in Grad C
  4. Windgeschwindigkeit (Vektorieller Mittelwert) in m/s
  5. Niederschlag in mm

Sensoren

 

 

Senden Sie E-Mail mit Fragen oder Kommentaren zu dieser Website an:  info@holzlandwetter.de
Copyright © 2007 Holzlandwetter
Stand: 21. Mai 2012